High Point, NC

12:57 PM EDT on July 26, 2017 (GMT -0400)
Oak Hollow Marina | | Change Station

Elev 850 ft 36.01 °N, 80.00 °W | Updated 7 minutes ago

Mostly Cloudy
Mostly Cloudy
81.1 °F
Feels Like 84 °F
N
0.9
Wind Variable Wind from ESE
Gusts 3.0 mph

Today
High -- | Low -- °F
--% Chance of Precip.
Yesterday
High -- | Low -- °F
Precip. -- in
Pressure 30.16 in
Visibility 10.0 miles
Clouds Scattered Clouds 3100 ft
Mostly Cloudy 7000 ft
Mostly Cloudy 25000 ft
Heat Index 84 °F
Dew Point 70 °F
Humidity 68%
Rainfall 0.00 in
Snow Depth Not available.
6:22 AM 8:29 PM
Waxing Crescent, 14% visible
METAR KGSO 261654Z 10007KT 10SM SCT031 BKN070 BKN250 27/20 A3019 RMK AO2 SLP212 T02720200
Pressure 30.16 in
Visibility 10.0 miles
Clouds Scattered Clouds 3100 ft
Mostly Cloudy 7000 ft
Mostly Cloudy 25000 ft
Heat Index 84 °F
Dew Point 70 °F
Humidity 68%
Rainfall 0.00 in
Snow Depth Not available.
6:22 AM 8:29 PM
Waxing Crescent, 14% visible
METAR KGSO 261654Z 10007KT 10SM SCT031 BKN070 BKN250 27/20 A3019 RMK AO2 SLP212 T02720200

Get Severe Weather Alerts

Thanks for signing up!

Be on the lookout for a verification email in your inbox.

You'll start receiving the daily forecast at 6 AM.

×

10-Day Weather Forecast

Almanac

Astronomy

Jul. 26, 2017 Rise Set
Actual Time
Civil Twilight
Nautical Twilight
Astronomical Twilight
Moon
Length of Visible Light
Length of Day
Tomorrow will be .
, % of the Moon is Illuminated

Today's Extremes

State Highs State Lows

Community

WunderPhotos

Category 6

Welcome to Category 6. This is the collective home for Weather Underground's featured writeups by Dr. Jeff Masters (right), Bob Henson (left), Chris Burt, and other regular contributors.

Nearby

Air Quality

  Air Quality AQ Index Pollutant
Not available.

Snow Depth

Station Depth Elevation

Earthquake Activity

City Distance Mag. Time & Date
Minimum magnitude displayed is 2.5.

Coastal Water Temperatures

Place Temperature

Stations

Nearby Weather Stations

Station Location Temp. Windchill Dew Point Humidity Wind Precip. Elev Updated Type
                   

Watches & Warnings

There are currently no watches in effect.